createdAt,value
2018-12-18T00:02:17.197Z,28.77
2018-12-18T00:04:45.403Z,27.77
2018-12-18T00:07:13.667Z,36.97
2018-12-18T00:09:41.933Z,30.63
2018-12-18T00:12:10.181Z,29.73
2018-12-18T00:14:39.266Z,19.80
2018-12-18T00:17:07.766Z,26.97
2018-12-18T00:19:35.988Z,25.57
2018-12-18T00:22:05.118Z,34.00
2018-12-18T00:24:33.335Z,28.03
2018-12-18T00:27:01.573Z,37.87
2018-12-18T00:29:29.829Z,28.50
2018-12-18T00:31:58.052Z,25.10
2018-12-18T00:34:26.260Z,31.80
2018-12-18T00:36:54.501Z,29.07
2018-12-18T00:39:22.726Z,30.70
2018-12-18T00:41:52.953Z,28.70
2018-12-18T00:44:21.172Z,30.83
2018-12-18T00:46:49.427Z,35.57
2018-12-18T00:49:17.666Z,30.03
2018-12-18T00:51:45.867Z,33.53
2018-12-18T00:54:15.193Z,28.50
2018-12-18T00:56:43.410Z,28.93
2018-12-18T00:59:11.698Z,28.70
2018-12-18T01:01:39.934Z,31.80
2018-12-18T01:04:08.149Z,35.13
2018-12-18T01:06:36.369Z,33.47
2018-12-18T01:09:06.265Z,38.77
2018-12-18T01:11:34.568Z,29.60
2018-12-18T01:14:02.806Z,34.10
2018-12-18T01:16:31.034Z,25.73
2018-12-18T01:18:59.274Z,35.60
2018-12-18T01:21:27.533Z,38.43
2018-12-18T01:23:55.740Z,25.87
2018-12-18T01:26:24.000Z,28.57
2018-12-18T01:28:52.233Z,22.90
2018-12-18T01:31:20.524Z,37.30
2018-12-18T01:33:48.761Z,30.87
2018-12-18T01:36:17.106Z,25.20
2018-12-18T01:38:45.343Z,28.93
2018-12-18T01:41:13.556Z,35.47
2018-12-18T01:43:41.756Z,28.23
2018-12-18T01:46:09.981Z,35.93
2018-12-18T01:48:38.218Z,30.40
2018-12-18T01:51:06.428Z,33.33
2018-12-18T01:53:34.638Z,41.10
2018-12-18T01:56:02.837Z,25.67
2018-12-18T01:58:31.037Z,29.70
2018-12-18T02:00:59.391Z,27.63
2018-12-18T02:03:27.631Z,37.17
2018-12-18T02:05:55.882Z,29.43
2018-12-18T02:08:24.220Z,28.73
2018-12-18T02:10:52.506Z,27.27
2018-12-18T02:13:20.878Z,38.50
2018-12-18T02:15:49.082Z,32.30
2018-12-18T02:18:17.288Z,26.37
2018-12-18T02:20:45.529Z,35.30
2018-12-18T02:23:13.847Z,38.00
2018-12-18T02:25:42.050Z,30.57
2018-12-18T02:28:10.297Z,43.97
2018-12-18T02:30:38.508Z,34.03
2018-12-18T02:33:06.813Z,31.57
2018-12-18T02:35:35.053Z,38.23
2018-12-18T02:38:03.425Z,30.43
2018-12-18T02:40:31.637Z,43.90
2018-12-18T02:42:59.883Z,31.43
2018-12-18T02:45:28.126Z,35.77
2018-12-18T02:47:56.346Z,31.03
2018-12-18T02:50:24.602Z,27.60
2018-12-18T02:52:52.841Z,31.13
2018-12-18T02:55:21.071Z,29.77
2018-12-18T02:57:49.332Z,33.77
2018-12-18T03:00:17.656Z,35.37
2018-12-18T03:02:46.035Z,33.27
2018-12-18T03:05:14.655Z,35.10
2018-12-18T03:07:42.986Z,33.57
2018-12-18T03:10:11.221Z,35.20
2018-12-18T03:12:39.430Z,34.40
2018-12-18T03:15:09.583Z,32.13
2018-12-18T03:17:37.876Z,34.00
2018-12-18T03:20:07.150Z,38.93
2018-12-18T03:22:35.467Z,31.20
2018-12-18T03:25:04.730Z,37.03
2018-12-18T03:27:33.005Z,35.87
2018-12-18T03:30:01.343Z,40.00
2018-12-18T03:32:34.582Z,31.17
2018-12-18T03:35:02.785Z,33.87
2018-12-18T03:37:31.055Z,32.40
2018-12-18T03:39:59.253Z,42.00
2018-12-18T03:42:27.535Z,27.93
2018-12-18T03:44:55.789Z,27.20
2018-12-18T03:47:24.024Z,28.57
2018-12-18T03:49:52.257Z,29.90
2018-12-18T03:52:20.530Z,31.17
2018-12-18T03:54:48.797Z,23.23
2018-12-18T03:57:17.011Z,31.43
2018-12-18T03:59:45.384Z,26.03
2018-12-18T04:02:13.863Z,26.97
2018-12-18T04:04:42.126Z,31.40
2018-12-18T04:07:10.314Z,39.57
2018-12-18T04:09:38.621Z,40.67
2018-12-18T04:12:08.458Z,27.87
2018-12-18T04:14:37.283Z,42.40
2018-12-18T04:17:05.557Z,28.40
2018-12-18T04:19:33.801Z,34.70
2018-12-18T04:22:02.011Z,44.63
2018-12-18T04:24:30.423Z,36.90
2018-12-18T04:26:58.681Z,35.57
2018-12-18T04:29:26.955Z,36.53
2018-12-18T04:31:55.273Z,36.40
2018-12-18T04:34:23.473Z,37.60
2018-12-18T04:36:51.692Z,25.87
2018-12-18T04:39:19.912Z,33.47
2018-12-18T04:41:48.284Z,28.20
2018-12-18T04:44:16.583Z,30.93
2018-12-18T04:46:44.793Z,31.17
2018-12-18T04:49:13.050Z,30.67
2018-12-18T04:51:41.284Z,30.87
2018-12-18T04:54:09.513Z,33.90
2018-12-18T04:56:37.702Z,27.80
2018-12-18T04:59:05.950Z,24.33
2018-12-18T05:01:34.143Z,28.63
2018-12-18T05:04:03.924Z,39.20
2018-12-18T05:06:32.519Z,36.30
2018-12-18T05:09:00.746Z,25.87
2018-12-18T05:11:29.056Z,30.47
2018-12-18T05:13:57.289Z,34.50
2018-12-18T05:16:25.522Z,34.60
2018-12-18T05:18:53.784Z,24.20
2018-12-18T05:21:21.989Z,22.27
2018-12-18T05:23:50.216Z,29.63
2018-12-18T05:26:18.425Z,32.00
2018-12-18T05:28:46.657Z,31.37
2018-12-18T05:31:14.862Z,28.00
2018-12-18T05:33:43.094Z,28.20
2018-12-18T05:36:11.344Z,36.83
2018-12-18T05:38:39.573Z,29.83
2018-12-18T05:41:07.821Z,31.13
2018-12-18T05:43:36.064Z,33.03
2018-12-18T05:46:04.280Z,25.50
2018-12-18T05:48:32.485Z,38.47
2018-12-18T05:51:00.709Z,33.70
2018-12-18T05:53:28.987Z,33.17
2018-12-18T05:55:57.197Z,40.87
2018-12-18T05:58:25.448Z,38.20
2018-12-18T06:00:53.722Z,35.03
2018-12-18T06:03:21.929Z,30.03
2018-12-18T06:05:50.149Z,35.37
2018-12-18T06:08:18.419Z,43.77
2018-12-18T06:10:46.670Z,33.10
2018-12-18T06:13:14.874Z,32.20
2018-12-18T06:15:43.081Z,35.33
2018-12-18T06:18:11.325Z,38.97
2018-12-18T06:20:39.732Z,24.93
2018-12-18T06:23:07.951Z,36.13
2018-12-18T06:25:36.173Z,34.63
2018-12-18T06:28:04.392Z,29.30
2018-12-18T06:30:32.640Z,52.37
2018-12-18T06:33:00.862Z,35.43
2018-12-18T06:35:29.087Z,33.43
2018-12-18T06:37:57.325Z,44.10
2018-12-18T06:40:25.606Z,34.40
2018-12-18T06:42:53.837Z,43.23
2018-12-18T06:45:22.078Z,33.33
2018-12-18T06:47:50.309Z,35.27
2018-12-18T06:50:18.543Z,31.33
2018-12-18T06:52:46.793Z,40.33
2018-12-18T06:55:15.094Z,38.63
2018-12-18T06:57:43.308Z,35.80
2018-12-18T07:00:12.404Z,56.60
2018-12-18T07:02:40.677Z,42.37
2018-12-18T07:05:08.980Z,50.83
2018-12-18T07:07:37.296Z,45.60
2018-12-18T07:10:06.392Z,42.30
2018-12-18T07:12:34.674Z,39.47
2018-12-18T07:15:03.421Z,36.43
2018-12-18T07:17:31.613Z,38.97
2018-12-18T07:19:59.855Z,38.47
2018-12-18T07:22:28.097Z,45.70
2018-12-18T07:24:56.453Z,35.83
2018-12-18T07:27:24.663Z,43.33
2018-12-18T07:29:52.916Z,28.47
2018-12-18T07:32:21.153Z,33.23
2018-12-18T07:34:49.349Z,33.87
2018-12-18T07:37:17.581Z,30.83
2018-12-18T07:39:45.805Z,36.13
2018-12-18T07:42:14.052Z,27.67
2018-12-18T07:44:42.251Z,25.50
2018-12-18T07:47:10.499Z,34.93
2018-12-18T07:49:41.669Z,32.00
2018-12-18T07:52:09.864Z,31.30
2018-12-18T07:54:38.128Z,26.53
2018-12-18T07:57:06.372Z,18.93
2018-12-18T07:59:34.593Z,21.93
2018-12-18T08:02:02.809Z,22.63
2018-12-18T08:04:31.065Z,29.20
2018-12-18T08:06:59.321Z,25.07
2018-12-18T08:09:27.525Z,27.97
2018-12-18T08:11:55.791Z,19.43
2018-12-18T08:14:24.025Z,18.87
2018-12-18T08:16:52.322Z,16.80
2018-12-18T08:19:20.539Z,21.67
2018-12-18T08:21:48.745Z,20.13
2018-12-18T08:24:16.981Z,18.80
2018-12-18T08:26:45.188Z,25.50
2018-12-18T08:29:13.449Z,13.67
2018-12-18T08:31:41.692Z,24.80
2018-12-18T08:34:09.904Z,16.57
2018-12-18T08:36:38.130Z,22.30
2018-12-18T08:39:08.876Z,22.57
2018-12-18T08:41:37.117Z,21.97
2018-12-18T08:44:05.432Z,28.00
2018-12-18T08:46:33.753Z,28.57
2018-12-18T08:49:01.987Z,21.60
2018-12-18T08:51:30.235Z,29.53
2018-12-18T08:53:58.601Z,33.47
2018-12-18T08:56:26.965Z,28.07
2018-12-18T08:58:55.194Z,32.13
2018-12-18T09:01:23.432Z,21.67
2018-12-18T09:03:51.726Z,34.63
2018-12-18T09:06:20.008Z,39.20
2018-12-18T09:08:48.345Z,30.20
2018-12-18T09:11:16.561Z,24.90
2018-12-18T09:13:44.865Z,21.50
2018-12-18T09:16:18.486Z,32.07
2018-12-18T09:18:46.728Z,32.80
2018-12-18T09:21:15.127Z,40.57
2018-12-18T09:23:43.432Z,42.07
2018-12-18T09:26:11.854Z,28.67
2018-12-18T09:28:40.141Z,27.47
2018-12-18T09:31:08.461Z,40.67
2018-12-18T09:33:37.210Z,42.00
2018-12-18T09:36:05.449Z,28.60
2018-12-18T09:38:39.149Z,40.37
2018-12-18T09:41:13.000Z,30.80
2018-12-18T09:43:46.769Z,38.63
2018-12-18T09:46:15.010Z,34.67
2018-12-18T09:48:43.255Z,40.17
2018-12-18T09:51:11.529Z,36.43
2018-12-18T09:53:39.787Z,41.97
2018-12-18T09:56:08.105Z,36.47
2018-12-18T09:58:36.360Z,37.83
2018-12-18T10:01:04.697Z,34.90
2018-12-18T10:03:33.665Z,38.07
2018-12-18T10:06:02.214Z,32.97
2018-12-18T10:08:30.489Z,36.73
2018-12-18T10:10:58.865Z,40.50
2018-12-18T10:13:27.101Z,47.40
2018-12-18T10:15:55.422Z,34.87
2018-12-18T10:18:23.628Z,38.93
2018-12-18T10:20:51.845Z,35.73
2018-12-18T10:23:20.033Z,43.33
2018-12-18T10:25:48.280Z,41.53
2018-12-18T10:28:16.493Z,30.87
2018-12-18T10:30:44.848Z,34.20
2018-12-18T10:33:13.230Z,28.00
2018-12-18T10:35:41.545Z,28.43
2018-12-18T10:38:09.839Z,26.13
2018-12-18T10:40:38.087Z,30.50
2018-12-18T10:43:06.325Z,27.67
2018-12-18T10:45:35.325Z,26.03
2018-12-18T10:48:03.662Z,34.47
2018-12-18T10:50:31.910Z,33.90
2018-12-18T10:53:00.148Z,41.33
2018-12-18T10:55:28.503Z,28.60
2018-12-18T10:57:56.779Z,34.30
2018-12-18T11:00:30.544Z,29.50
2018-12-18T11:02:58.783Z,23.27
2018-12-18T11:05:27.053Z,23.73
2018-12-18T11:07:55.402Z,22.80
2018-12-18T11:10:24.025Z,28.47
2018-12-18T11:12:57.870Z,20.97
2018-12-18T11:15:26.113Z,22.03
2018-12-18T11:17:54.337Z,21.93
2018-12-18T11:20:22.554Z,24.20
2018-12-18T11:22:50.875Z,20.23
2018-12-18T11:25:19.208Z,21.00
2018-12-18T11:27:47.477Z,30.70
2018-12-18T11:30:15.789Z,29.80
2018-12-18T11:32:44.082Z,20.83
2018-12-18T11:35:12.422Z,27.33
2018-12-18T11:37:40.720Z,22.27
2018-12-18T11:40:09.897Z,27.77
2018-12-18T11:42:38.205Z,17.37
2018-12-18T11:45:06.583Z,21.63
2018-12-18T11:47:34.831Z,28.67
2018-12-18T11:50:03.239Z,20.47
2018-12-18T11:52:31.480Z,15.13
2018-12-18T11:54:59.729Z,17.10
2018-12-18T11:57:27.966Z,20.07
2018-12-18T11:59:56.174Z,14.13
2018-12-18T12:02:24.444Z,13.83
2018-12-18T12:04:52.658Z,19.23
2018-12-18T12:07:20.933Z,16.90
2018-12-18T12:09:49.128Z,21.90
2018-12-18T12:12:17.338Z,13.80
2018-12-18T12:14:45.969Z,18.53
2018-12-18T12:17:14.250Z,17.07
2018-12-18T12:19:42.457Z,14.50
2018-12-18T12:22:10.712Z,18.57
2018-12-18T12:24:38.928Z,13.03
2018-12-18T12:27:12.630Z,20.63
2018-12-18T12:29:40.904Z,12.73
2018-12-18T12:32:09.133Z,18.70
2018-12-18T12:34:37.650Z,16.17
2018-12-18T12:37:05.869Z,21.03
2018-12-18T12:39:34.124Z,14.93
2018-12-18T12:42:02.337Z,18.30
2018-12-18T12:44:30.701Z,16.57
2018-12-18T12:46:58.906Z,17.27
2018-12-18T12:49:32.526Z,16.00
2018-12-18T12:52:00.769Z,15.70
2018-12-18T12:54:29.013Z,17.47
2018-12-18T12:56:57.262Z,19.30
2018-12-18T12:59:25.548Z,20.27
2018-12-18T13:01:53.889Z,16.20
2018-12-18T13:04:22.238Z,14.73
2018-12-18T13:06:50.583Z,14.40
2018-12-18T13:09:18.842Z,19.17
2018-12-18T13:11:47.084Z,14.93
2018-12-18T13:14:15.510Z,15.47
2018-12-18T13:16:43.856Z,16.83
2018-12-18T13:19:12.123Z,13.60
2018-12-18T13:21:40.414Z,23.30
2018-12-18T13:24:08.707Z,19.63
2018-12-18T13:26:37.001Z,17.13
2018-12-18T13:29:05.261Z,11.50
2018-12-18T13:31:33.540Z,11.87
2018-12-18T13:34:02.064Z,10.17
2018-12-18T13:36:30.518Z,13.10
2018-12-18T13:38:58.754Z,9.93
2018-12-18T13:41:27.012Z,10.07
2018-12-18T13:43:55.305Z,10.17
2018-12-18T13:46:23.549Z,9.97
2018-12-18T13:48:51.738Z,14.07
2018-12-18T13:51:20.013Z,11.87
2018-12-18T13:53:48.269Z,12.17
2018-12-18T13:56:16.549Z,13.17
2018-12-18T13:58:44.753Z,12.87
2018-12-18T14:01:13.053Z,10.97
2018-12-18T14:03:41.306Z,10.70
2018-12-18T14:06:09.597Z,9.33
2018-12-18T14:08:37.869Z,19.03
2018-12-18T14:11:06.179Z,13.60
2018-12-18T14:13:34.613Z,10.07
2018-12-18T14:16:03.443Z,10.43
2018-12-18T14:18:31.858Z,14.33
2018-12-18T14:21:00.068Z,8.43
2018-12-18T14:23:28.396Z,26.30
2018-12-18T14:25:56.624Z,11.30
2018-12-18T14:28:24.861Z,8.67
2018-12-18T14:30:53.071Z,7.40
2018-12-18T14:33:21.347Z,8.40
2018-12-18T14:35:49.700Z,15.40
2018-12-18T14:38:18.001Z,11.90
2018-12-18T14:40:46.277Z,12.83
2018-12-18T14:43:14.608Z,14.30
2018-12-18T14:45:42.863Z,10.13
2018-12-18T14:48:11.109Z,15.93
2018-12-18T14:50:39.385Z,10.97
2018-12-18T14:53:07.653Z,15.53
2018-12-18T14:55:35.929Z,14.23
2018-12-18T14:58:04.222Z,25.00
2018-12-18T15:00:32.498Z,8.40
2018-12-18T15:03:00.769Z,15.40
2018-12-18T15:05:29.183Z,13.43
2018-12-18T15:07:57.496Z,12.93
2018-12-18T15:10:26.266Z,10.03
2018-12-18T15:13:00.984Z,13.73
2018-12-18T15:15:29.261Z,8.40
2018-12-18T15:17:57.493Z,14.70
2018-12-18T15:20:25.746Z,9.47
2018-12-18T15:22:53.934Z,9.07
2018-12-18T15:25:22.215Z,5.93
2018-12-18T15:27:50.424Z,6.33
2018-12-18T15:30:18.909Z,7.97
2018-12-18T15:32:47.095Z,6.73
2018-12-18T15:35:15.525Z,9.43
2018-12-18T15:37:44.079Z,14.13
2018-12-18T15:40:12.398Z,7.13
2018-12-18T15:42:40.658Z,6.57
2018-12-18T15:45:09.171Z,4.43
2018-12-18T15:47:37.450Z,4.73
2018-12-18T15:50:07.782Z,7.57
2018-12-18T15:52:36.265Z,8.57
2018-12-18T15:55:05.401Z,9.93
2018-12-18T15:57:33.605Z,8.43
2018-12-18T16:00:01.826Z,4.80
2018-12-18T16:02:30.846Z,4.83
2018-12-18T16:04:59.066Z,5.73
2018-12-18T16:07:27.303Z,8.63
2018-12-18T16:09:55.593Z,10.77
2018-12-18T16:12:23.821Z,4.73
2018-12-18T16:14:52.109Z,7.27
2018-12-18T16:17:20.363Z,6.60
2018-12-18T16:19:48.598Z,7.10
2018-12-18T16:22:16.848Z,6.87
2018-12-18T16:24:45.105Z,6.80
2018-12-18T16:27:14.247Z,6.07
2018-12-18T16:29:42.485Z,4.20
2018-12-18T16:32:10.701Z,9.63
2018-12-18T16:34:38.950Z,3.77
2018-12-18T16:37:07.221Z,2.80
2018-12-18T16:39:35.465Z,4.37
2018-12-18T16:42:03.697Z,4.73
2018-12-18T16:44:31.978Z,6.47
2018-12-18T16:47:00.205Z,5.80
2018-12-18T16:49:28.635Z,4.77
2018-12-18T16:51:56.961Z,3.43
2018-12-18T16:54:25.594Z,6.27
2018-12-18T16:56:54.145Z,6.97
2018-12-18T16:59:22.453Z,5.77
2018-12-18T17:01:50.745Z,9.37
2018-12-18T17:04:19.013Z,7.30
2018-12-18T17:06:47.224Z,5.80
2018-12-18T17:09:15.563Z,5.80
2018-12-18T17:11:43.805Z,4.73
2018-12-18T17:14:12.025Z,7.03
2018-12-18T17:16:40.269Z,5.97
2018-12-18T17:19:08.507Z,7.27
2018-12-18T17:21:36.746Z,5.97
2018-12-18T17:24:05.020Z,6.97
2018-12-18T17:26:33.313Z,3.73
2018-12-18T17:29:01.579Z,4.53
2018-12-18T17:31:29.861Z,7.53
2018-12-18T17:33:58.130Z,6.13
2018-12-18T17:36:26.443Z,4.17
2018-12-18T17:38:54.689Z,6.43
2018-12-18T17:41:23.076Z,9.13
2018-12-18T17:43:51.742Z,3.80
2018-12-18T17:46:20.031Z,6.43
2018-12-18T17:48:48.371Z,4.47
2018-12-18T17:51:16.581Z,8.27
2018-12-18T17:53:44.828Z,6.60
2018-12-18T17:56:13.038Z,7.53
2018-12-18T17:58:41.305Z,11.07
2018-12-18T18:01:09.561Z,9.67
2018-12-18T18:03:37.853Z,10.87
2018-12-18T18:06:06.082Z,5.73
2018-12-18T18:08:34.318Z,8.80
2018-12-18T18:11:02.537Z,10.37
2018-12-18T18:13:30.745Z,4.73
2018-12-18T18:15:59.021Z,5.67
2018-12-18T18:18:27.218Z,4.00
2018-12-18T18:20:55.469Z,6.97
2018-12-18T18:23:23.665Z,7.13
2018-12-18T18:25:52.380Z,12.50
2018-12-18T18:28:20.624Z,9.37
2018-12-18T18:30:48.885Z,5.57
2018-12-18T18:33:17.142Z,9.90
2018-12-18T18:35:45.367Z,8.07
2018-12-18T18:38:13.808Z,4.40
2018-12-18T18:40:42.046Z,7.00
2018-12-18T18:43:10.257Z,9.17
2018-12-18T18:45:38.484Z,10.73
2018-12-18T18:48:06.724Z,6.00
2018-12-18T18:50:34.946Z,9.13
2018-12-18T18:53:03.224Z,10.73
2018-12-18T18:55:31.502Z,12.17
2018-12-18T18:57:59.738Z,15.63
2018-12-18T19:00:30.993Z,6.53
2018-12-18T19:02:59.490Z,6.63
2018-12-18T19:05:27.764Z,11.07
2018-12-18T19:07:56.805Z,7.57
2018-12-18T19:10:25.367Z,7.77
2018-12-18T19:12:57.884Z,12.33
2018-12-18T19:15:26.209Z,7.80
2018-12-18T19:17:54.591Z,9.43
2018-12-18T19:20:23.072Z,8.47
2018-12-18T19:22:51.354Z,5.53
2018-12-18T19:25:19.673Z,10.77
2018-12-18T19:27:48.014Z,4.90
2018-12-18T19:30:16.488Z,9.90
2018-12-18T19:32:44.866Z,5.43
2018-12-18T19:35:13.466Z,7.13
2018-12-18T19:37:41.831Z,6.80
2018-12-18T19:40:10.049Z,7.30
2018-12-18T19:42:38.560Z,5.77
2018-12-18T19:45:07.518Z,7.57
2018-12-18T19:47:35.872Z,8.27
2018-12-18T19:50:04.609Z,6.87
2018-12-18T19:52:33.112Z,6.73
2018-12-18T19:55:01.657Z,7.87
2018-12-18T19:57:29.895Z,8.03
2018-12-18T19:59:58.213Z,15.30
2018-12-18T20:02:26.451Z,14.40
2018-12-18T20:04:54.679Z,10.90
2018-12-18T20:07:22.992Z,14.40
2018-12-18T20:09:51.216Z,6.83
2018-12-18T20:12:19.493Z,11.30
2018-12-18T20:14:47.734Z,10.80
2018-12-18T20:17:16.366Z,9.43
2018-12-18T20:19:44.765Z,7.13
2018-12-18T20:22:13.066Z,7.17
2018-12-18T20:24:41.283Z,8.63
2018-12-18T20:27:09.673Z,8.80
2018-12-18T20:29:37.901Z,17.83
2018-12-18T20:32:06.257Z,6.33
2018-12-18T20:34:34.617Z,11.97
2018-12-18T20:37:02.841Z,8.60
2018-12-18T20:39:31.070Z,4.23
2018-12-18T20:41:59.361Z,8.77
2018-12-18T20:44:27.595Z,7.20
2018-12-18T20:46:55.810Z,5.90
2018-12-18T20:49:24.046Z,7.57
2018-12-18T20:51:52.291Z,8.77
2018-12-18T20:54:20.588Z,8.13
2018-12-18T20:56:48.802Z,10.17
2018-12-18T20:59:17.054Z,5.77
2018-12-18T21:01:45.311Z,6.33
2018-12-18T21:04:14.116Z,7.83
2018-12-18T21:06:42.641Z,9.13
2018-12-18T21:09:10.970Z,5.33
2018-12-18T21:11:39.321Z,4.73
2018-12-18T21:14:07.717Z,6.50
2018-12-18T21:16:36.194Z,9.40
2018-12-18T21:19:04.581Z,10.63
2018-12-18T21:21:33.136Z,5.90
2018-12-18T21:24:02.546Z,7.03
2018-12-18T21:26:31.087Z,6.97
2018-12-18T21:28:59.600Z,12.50
2018-12-18T21:31:28.110Z,11.00
2018-12-18T21:33:56.584Z,6.70
2018-12-18T21:36:26.348Z,15.13
2018-12-18T21:38:55.116Z,15.30
2018-12-18T21:41:23.924Z,10.87
2018-12-18T21:43:52.521Z,6.40
2018-12-18T21:46:21.271Z,7.30
2018-12-18T21:48:49.692Z,7.47
2018-12-18T21:51:18.287Z,8.47
2018-12-18T21:53:46.959Z,6.90
2018-12-18T21:56:15.482Z,8.73
2018-12-18T21:58:44.161Z,11.47
2018-12-18T22:01:12.654Z,7.63
2018-12-18T22:03:41.037Z,7.50
2018-12-18T22:06:09.818Z,10.77
2018-12-18T22:08:38.423Z,13.33
2018-12-18T22:11:06.882Z,9.83
2018-12-18T22:13:35.265Z,8.33
2018-12-18T22:16:04.161Z,5.70
2018-12-18T22:18:32.657Z,5.93
2018-12-18T22:21:01.416Z,8.90
2018-12-18T22:23:29.856Z,7.40
2018-12-18T22:25:58.186Z,10.27
2018-12-18T22:28:26.439Z,8.70
2018-12-18T22:30:54.666Z,10.83
2018-12-18T22:33:22.905Z,7.70
2018-12-18T22:35:51.097Z,10.13
2018-12-18T22:38:19.462Z,9.57
2018-12-18T22:40:47.653Z,8.23
2018-12-18T22:43:15.888Z,6.43
2018-12-18T22:45:44.106Z,11.60
2018-12-18T22:48:13.289Z,7.80
2018-12-18T22:50:41.766Z,10.33
2018-12-18T22:53:10.106Z,8.23
2018-12-18T22:55:44.670Z,9.13
2018-12-18T22:58:08.618Z,5.10
2018-12-18T23:00:42.310Z,6.53
2018-12-18T23:03:10.514Z,7.43
2018-12-18T23:05:38.753Z,12.53
2018-12-18T23:08:07.002Z,12.97
2018-12-18T23:10:35.265Z,9.43
2018-12-18T23:13:03.516Z,9.73
2018-12-18T23:15:31.834Z,7.70
2018-12-18T23:18:00.145Z,11.07
2018-12-18T23:20:28.384Z,7.03
2018-12-18T23:22:56.622Z,6.97
2018-12-18T23:25:26.016Z,9.13
2018-12-18T23:27:54.237Z,18.63
2018-12-18T23:30:22.481Z,8.50
2018-12-18T23:32:50.703Z,6.47
2018-12-18T23:35:18.955Z,5.10
2018-12-18T23:37:47.177Z,5.40
2018-12-18T23:40:15.529Z,4.80
2018-12-18T23:42:43.863Z,9.03
2018-12-18T23:45:12.241Z,7.47
2018-12-18T23:47:40.449Z,7.40
2018-12-18T23:50:08.705Z,10.63
2018-12-18T23:52:37.077Z,8.57
2018-12-18T23:55:05.629Z,4.53
2018-12-18T23:57:33.881Z,5.67
